sensor_id;sensor_type;location;lat;lon;timestamp;temperature;humidity
37408;DHT22;24866;50.248;8.252;2024-03-17T00:03:37;7.40;99.90
37408;DHT22;24866;50.248;8.252;2024-03-17T00:43:39;7.10;99.90
37408;DHT22;24866;50.248;8.252;2024-03-17T06:05:15;3.60;99.90
37408;DHT22;24866;50.248;8.252;2024-03-17T06:07:45;3.50;99.90
37408;DHT22;24866;50.248;8.252;2024-03-17T06:32:55;4.10;99.90
37408;DHT22;24866;50.248;8.252;2024-03-17T06:35:25;4.00;99.90
37408;DHT22;24866;50.248;8.252;2024-03-17T06:37:55;3.80;99.90
37408;DHT22;24866;50.248;8.252;2024-03-17T06:40:28;3.80;99.90
37408;DHT22;24866;50.248;8.252;2024-03-17T06:43:00;3.90;99.90
37408;DHT22;24866;50.248;8.252;2024-03-17T06:45:30;3.90;99.90
37408;DHT22;24866;50.248;8.252;2024-03-17T06:48:00;3.80;99.90
37408;DHT22;24866;50.248;8.252;2024-03-17T06:50:30;4.00;99.90
37408;DHT22;24866;50.248;8.252;2024-03-17T06:52:59;4.10;99.90
37408;DHT22;24866;50.248;8.252;2024-03-17T06:55:29;4.30;99.90
37408;DHT22;24866;50.248;8.252;2024-03-17T07:23:05;6.70;99.90
37408;DHT22;24866;50.248;8.252;2024-03-17T07:25:35;6.70;99.90
37408;DHT22;24866;50.248;8.252;2024-03-17T07:28:06;6.90;99.90
37408;DHT22;24866;50.248;8.252;2024-03-17T07:30:36;7.00;99.90
37408;DHT22;24866;50.248;8.252;2024-03-17T07:33:06;7.10;99.90
37408;DHT22;24866;50.248;8.252;2024-03-17T07:35:36;7.10;99.90
37408;DHT22;24866;50.248;8.252;2024-03-17T07:38:05;7.10;99.90
37408;DHT22;24866;50.248;8.252;2024-03-17T07:40:35;7.30;99.90
37408;DHT22;24866;50.248;8.252;2024-03-17T07:43:07;7.40;99.90
37408;DHT22;24866;50.248;8.252;2024-03-17T07:45:37;7.60;99.90
37408;DHT22;24866;50.248;8.252;2024-03-17T07:48:07;7.60;99.90
37408;DHT22;24866;50.248;8.252;2024-03-17T07:50:37;7.60;99.90
37408;DHT22;24866;50.248;8.252;2024-03-17T08:03:09;8.10;99.90
37408;DHT22;24866;50.248;8.252;2024-03-17T08:05:39;8.10;99.90
37408;DHT22;24866;50.248;8.252;2024-03-17T08:08:10;8.20;99.90
37408;DHT22;24866;50.248;8.252;2024-03-17T08:10:40;8.30;99.90
37408;DHT22;24866;50.248;8.252;2024-03-17T08:13:11;8.40;99.90
37408;DHT22;24866;50.248;8.252;2024-03-17T08:15:45;8.50;99.90
37408;DHT22;24866;50.248;8.252;2024-03-17T08:18:15;8.60;99.90
37408;DHT22;24866;50.248;8.252;2024-03-17T08:20:45;8.70;99.90
37408;DHT22;24866;50.248;8.252;2024-03-17T08:23:15;8.80;99.90
37408;DHT22;24866;50.248;8.252;2024-03-17T08:35:56;9.10;99.90
37408;DHT22;24866;50.248;8.252;2024-03-17T08:38:27;9.20;99.90
37408;DHT22;24866;50.248;8.252;2024-03-17T08:43:29;8.90;99.90
37408;DHT22;24866;50.248;8.252;2024-03-17T08:48:32;9.20;99.90
37408;DHT22;24866;50.248;8.252;2024-03-17T08:51:04;9.50;99.90
37408;DHT22;24866;50.248;8.252;2024-03-17T09:11:15;9.40;99.90
37408;DHT22;24866;50.248;8.252;2024-03-17T09:28:50;10.00;99.90
37408;DHT22;24866;50.248;8.252;2024-03-17T09:31:20;9.90;99.90
37408;DHT22;24866;50.248;8.252;2024-03-17T10:37:07;11.20;99.90
37408;DHT22;24866;50.248;8.252;2024-03-17T11:31:39;11.90;86.90
37408;DHT22;24866;50.248;8.252;2024-03-17T11:34:43;12.00;1.00
37408;DHT22;24866;50.248;8.252;2024-03-17T11:37:40;11.60;99.90
37408;DHT22;24866;50.248;8.252;2024-03-17T11:40:24;11.50;11.60
37408;DHT22;24866;50.248;8.252;2024-03-17T11:43:00;11.80;99.90
37408;DHT22;24866;50.248;8.252;2024-03-17T11:50:31;11.90;1.00
37408;DHT22;24866;50.248;8.252;2024-03-17T11:53:01;11.80;99.90
37408;DHT22;24866;50.248;8.252;2024-03-17T11:55:30;11.60;99.90
37408;DHT22;24866;50.248;8.252;2024-03-17T11:57:59;11.70;99.90
37408;DHT22;24866;50.248;8.252;2024-03-17T12:00:28;11.80;99.90
37408;DHT22;24866;50.248;8.252;2024-03-17T12:02:59;11.80;99.90
37408;DHT22;24866;50.248;8.252;2024-03-17T12:05:28;11.70;99.90
37408;DHT22;24866;50.248;8.252;2024-03-17T12:08:01;11.70;8.30
37408;DHT22;24866;50.248;8.252;2024-03-17T12:10:30;11.70;1.00
37408;DHT22;24866;50.248;8.252;2024-03-17T12:12:59;11.70;1.00
37408;DHT22;24866;50.248;8.252;2024-03-17T12:15:28;11.50;1.00
37408;DHT22;24866;50.248;8.252;2024-03-17T12:17:59;11.70;1.00
37408;DHT22;24866;50.248;8.252;2024-03-17T12:20:31;11.70;1.00
37408;DHT22;24866;50.248;8.252;2024-03-17T12:23:03;11.70;1.00
37408;DHT22;24866;50.248;8.252;2024-03-17T12:25:32;11.80;1.00
37408;DHT22;24866;50.248;8.252;2024-03-17T12:28:03;11.80;1.00
37408;DHT22;24866;50.248;8.252;2024-03-17T12:30:32;12.20;1.00
37408;DHT22;24866;50.248;8.252;2024-03-17T12:33:02;12.30;1.00
37408;DHT22;24866;50.248;8.252;2024-03-17T12:35:33;12.60;73.90
37408;DHT22;24866;50.248;8.252;2024-03-17T12:38:19;12.70;1.00
37408;DHT22;24866;50.248;8.252;2024-03-17T14:49:50;12.40;1.00
37408;DHT22;24866;50.248;8.252;2024-03-17T14:52:20;12.30;1.00
37408;DHT22;24866;50.248;8.252;2024-03-17T15:30:05;12.70;99.90
37408;DHT22;24866;50.248;8.252;2024-03-17T15:32:35;12.70;1.00
37408;DHT22;24866;50.248;8.252;2024-03-17T15:35:06;12.60;1.00
37408;DHT22;24866;50.248;8.252;2024-03-17T15:37:36;12.90;99.90
37408;DHT22;24866;50.248;8.252;2024-03-17T15:40:09;12.90;15.70
37408;DHT22;24866;50.248;8.252;2024-03-17T15:45:15;12.90;99.90
37408;DHT22;24866;50.248;8.252;2024-03-17T15:47:49;13.10;99.90
37408;DHT22;24866;50.248;8.252;2024-03-17T15:57:52;12.70;99.90
37408;DHT22;24866;50.248;8.252;2024-03-17T16:07:55;12.60;1.00
37408;DHT22;24866;50.248;8.252;2024-03-17T16:10:29;12.60;1.00
37408;DHT22;24866;50.248;8.252;2024-03-17T16:49:00;11.80;1.00
37408;DHT22;24866;50.248;8.252;2024-03-17T16:51:30;11.70;59.60
37408;DHT22;24866;50.248;8.252;2024-03-17T16:54:00;11.50;99.90
37408;DHT22;24866;50.248;8.252;2024-03-17T16:56:32;11.50;1.00
37408;DHT22;24866;50.248;8.252;2024-03-17T16:59:01;11.50;1.00
37408;DHT22;24866;50.248;8.252;2024-03-17T17:01:31;11.30;1.00
37408;DHT22;24866;50.248;8.252;2024-03-17T17:04:05;11.20;1.00
37408;DHT22;24866;50.248;8.252;2024-03-17T17:57:06;10.70;99.90
37408;DHT22;24866;50.248;8.252;2024-03-17T18:52:21;10.20;99.90
37408;DHT22;24866;50.248;8.252;2024-03-17T18:54:50;10.30;99.90
37408;DHT22;24866;50.248;8.252;2024-03-17T18:57:22;10.30;99.90
37408;DHT22;24866;50.248;8.252;2024-03-17T18:59:52;10.30;99.90
37408;DHT22;24866;50.248;8.252;2024-03-17T19:02:22;9.70;99.90
37408;DHT22;24866;50.248;8.252;2024-03-17T19:47:50;9.60;99.90
37408;DHT22;24866;50.248;8.252;2024-03-17T19:50:21;9.70;99.90
37408;DHT22;24866;50.248;8.252;2024-03-17T19:52:51;9.70;99.90
